Time;durP1;ratioP1;P1;durP2;ratioP2;P2;SDS_P1;SDS_P2;PMS_P1;PMS_P2;Temp;Humidity;BMP_temperature;BMP_pressure;BME280_temperature;BME280_humidity;BME280_pressure;Samples;Min_cycle;Max_cycle;Signal;HPM_P1;HPM_P2
2023/08/02 00:01:25;;;;;;;;;1.00;1.00;;;;;24.27;100.00;99982.56;5074598;27;62436;-86
2023/08/02 00:03:50;;;;;;;;;5.67;1.00;;;;;24.23;100.00;99975.63;5098243;27;48406;-84
2023/08/02 00:06:15;;;;;;;;;1.67;1.00;;;;;24.29;100.00;99969.00;5097880;27;70864;-84
2023/08/02 00:08:41;;;;;;;;;0.67;0.67;;;;;24.28;100.00;99964.56;5092619;27;61383;-87
2023/08/02 00:11:15;;;;;;;;;1.00;1.00;;;;;24.23;100.00;99953.16;5085961;27;58474;-84
2023/08/02 00:13:40;;;;;;;;;1.00;1.00;;;;;24.24;100.00;99955.78;5089460;27;45375;-84
2023/08/02 00:16:05;;;;;;;;;2.00;0.67;;;;;24.26;100.00;99945.75;5099365;27;69731;-87
2023/08/02 00:18:31;;;;;;;;;1.00;1.00;;;;;24.23;100.00;99939.69;5096368;27;63034;-85
2023/08/02 00:20:56;;;;;;;;;0.00;0.00;;;;;24.23;100.00;99936.97;5087938;27;60904;-87
2023/08/02 00:23:21;;;;;;;;;1.00;1.00;;;;;24.23;100.00;99934.28;5093874;27;59760;-85
2023/08/02 00:25:47;;;;;;;;;0.00;0.00;;;;;24.21;100.00;99933.50;5084789;27;64700;-87
2023/08/02 00:28:12;;;;;;;;;0.00;0.00;;;;;24.19;100.00;99905.78;5091956;27;45937;-87
2023/08/02 00:30:45;;;;;;;;;0.67;0.00;;;;;24.17;100.00;99904.97;5081374;27;45306;-87
2023/08/02 00:33:11;;;;;;;;;0.33;0.33;;;;;24.15;100.00;99901.50;5088642;27;45330;-86
2023/08/02 00:35:36;;;;;;;;;0.00;0.00;;;;;24.20;100.00;99896.72;5080187;27;45542;-85
2023/08/02 00:38:01;;;;;;;;;0.00;0.00;;;;;24.16;100.00;99892.47;5090070;27;66481;-84
2023/08/02 00:40:26;;;;;;;;;0.00;0.00;;;;;24.14;100.00;99873.69;5096686;27;59851;-85
2023/08/02 00:42:52;;;;;;;;;0.00;0.00;;;;;24.21;100.00;99872.34;5097386;27;59901;-85
2023/08/02 00:45:17;;;;;;;;;0.00;0.00;;;;;24.20;100.00;99862.50;5084270;27;62635;-85
2023/08/02 00:47:42;;;;;;;;;0.00;0.00;;;;;24.25;100.00;99854.16;5099256;27;48579;-85
2023/08/02 00:50:08;;;;;;;;;0.00;0.00;;;;;24.16;100.00;99836.69;5085689;27;56253;-84
2023/08/02 00:52:34;;;;;;;;;0.00;0.00;;;;;24.21;100.00;99829.19;5096828;27;45584;-87
2023/08/02 00:54:59;;;;;;;;;0.00;0.00;;;;;24.19;100.00;99820.31;5088557;27;67932;-87
2023/08/02 00:57:24;;;;;;;;;0.00;0.00;;;;;24.12;100.00;99816.25;5094823;27;45226;-84
2023/08/02 00:59:50;;;;;;;;;0.00;0.00;;;;;24.07;100.00;99801.31;5078084;27;62375;-86
2023/08/02 01:02:15;;;;;;;;;0.00;0.00;;;;;24.09;100.00;99807.50;5085699;27;58939;-84
2023/08/02 01:04:40;;;;;;;;;0.00;0.00;;;;;24.09;100.00;99800.25;5087718;27;69410;-85
2023/08/02 01:07:29;;;;;;;;;0.00;0.00;;;;;24.10;100.00;99788.50;5086730;27;64786;-85
2023/08/02 01:10:07;;;;;;;;;0.00;0.00;;;;;24.09;100.00;99778.69;5096980;27;45212;-85
2023/08/02 01:12:35;;;;;;;;;0.00;0.00;;;;;24.08;100.00;99776.09;5094956;27;45361;-85
2023/08/02 01:15:03;;;;;;;;;0.00;0.00;;;;;24.08;100.00;99763.47;5096865;27;46941;-87
2023/08/02 01:17:30;;;;;;;;;0.00;0.00;;;;;24.10;100.00;99766.06;5092192;27;45485;-85
2023/08/02 01:20:03;;;;;;;;;0.00;0.00;;;;;24.07;100.00;99755.44;5086198;27;45513;-84
2023/08/02 01:22:29;;;;;;;;;0.00;0.00;;;;;24.09;100.00;99756.25;5100663;27;45402;-85
2023/08/02 01:24:56;;;;;;;;;0.00;0.00;;;;;24.07;100.00;99750.06;5089525;27;45878;-85
2023/08/02 01:27:24;;;;;;;;;0.00;0.00;;;;;24.01;100.00;99741.38;5096949;27;45598;-83
2023/08/02 01:29:51;;;;;;;;;0.00;0.00;;;;;23.99;100.00;99729.84;5070204;27;45472;-85
2023/08/02 01:32:18;;;;;;;;;0.00;0.00;;;;;23.96;100.00;99716.53;5078308;27;45666;-84
2023/08/02 01:34:43;;;;;;;;;0.67;0.00;;;;;23.97;100.00;99714.69;5112432;27;47614;-85
2023/08/02 01:37:09;;;;;;;;;0.00;0.00;;;;;24.00;100.00;99704.59;5109938;27;52517;-84
2023/08/02 01:39:34;;;;;;;;;0.00;0.00;;;;;23.97;100.00;99709.31;5097744;27;45268;-84
2023/08/02 01:41:59;;;;;;;;;0.00;0.00;;;;;23.93;100.00;99697.00;5112624;27;60159;-85
2023/08/02 01:44:25;;;;;;;;;0.00;0.00;;;;;23.93;100.00;99707.78;5086925;27;68771;-87
2023/08/02 01:46:50;;;;;;;;;0.00;0.00;;;;;23.91;100.00;99704.31;5087560;27;60783;-86
2023/08/02 01:49:15;;;;;;;;;0.00;0.00;;;;;23.93;100.00;99703.25;5095585;27;46975;-85
2023/08/02 01:51:41;;;;;;;;;0.00;0.00;;;;;23.95;100.00;99695.94;5090006;27;58996;-85
2023/08/02 01:54:06;;;;;;;;;0.00;0.00;;;;;24.03;100.00;99698.16;5088430;27;46664;-85
2023/08/02 01:56:31;;;;;;;;;0.00;0.00;;;;;23.99;100.00;99697.47;5090360;27;45454;-85
2023/08/02 01:58:57;;;;;;;;;0.00;0.00;;;;;23.96;100.00;99688.72;5085460;27;51010;-87
2023/08/02 02:01:22;;;;;;;;;0.00;0.00;;;;;23.94;100.00;99682.56;5097533;27;60161;-87
2023/08/02 02:03:47;;;;;;;;;0.67;0.00;;;;;23.94;100.00;99682.56;5096785;27;47630;-86
2023/08/02 02:06:13;;;;;;;;;0.00;0.00;;;;;23.93;100.00;99675.44;5095095;27;62456;-86
2023/08/02 02:08:38;;;;;;;;;1.00;0.00;;;;;23.93;100.00;99673.59;5081510;27;59485;-85
2023/08/02 02:11:04;;;;;;;;;0.00;0.00;;;;;23.89;100.00;99668.50;5076609;27;45568;-84
2023/08/02 02:13:30;;;;;;;;;0.00;0.00;;;;;23.90;100.00;99668.38;5092741;27;46722;-85
2023/08/02 02:15:55;;;;;;;;;0.00;0.00;;;;;23.86;100.00;99664.13;5096604;27;45330;-85
2023/08/02 02:18:21;;;;;;;;;0.00;0.00;;;;;23.91;100.00;99655.78;5112952;27;63393;-85
2023/08/02 02:20:46;;;;;;;;;0.00;0.00;;;;;23.88;100.00;99651.47;5096761;27;45646;-85
2023/08/02 02:23:11;;;;;;;;;0.00;0.00;;;;;23.82;100.00;99650.97;5089524;27;63026;-85
2023/08/02 02:25:37;;;;;;;;;0.00;0.00;;;;;23.87;100.00;99644.34;5093398;27;45433;-85
2023/08/02 02:28:02;;;;;;;;;0.00;0.00;;;;;23.83;100.00;99639.22;5085170;27;61069;-85
2023/08/02 02:30:27;;;;;;;;;0.00;0.00;;;;;23.83;100.00;99633.84;5097860;27;45318;-85
2023/08/02 02:32:53;;;;;;;;;0.00;0.00;;;;;23.86;100.00;99629.09;5095823;27;46899;-87
2023/08/02 02:35:18;;;;;;;;;0.00;0.00;;;;;23.87;100.00;99614.69;5091406;27;55997;-83
2023/08/02 02:37:44;;;;;;;;;1.00;0.00;;;;;23.83;100.00;99605.03;5091340;27;59353;-85
2023/08/02 02:40:09;;;;;;;;;0.00;0.00;;;;;23.83;100.00;99593.41;5092105;27;56406;-85
2023/08/02 02:42:38;;;;;;;;;0.33;0.00;;;;;23.87;100.00;99590.41;5096735;27;47195;-85
2023/08/02 02:45:04;;;;;;;;;0.67;0.00;;;;;23.91;100.00;99574.88;5079434;27;45418;-85
2023/08/02 02:47:29;;;;;;;;;0.00;0.00;;;;;23.91;100.00;99574.88;5105221;27;45283;-85
2023/08/02 02:49:55;;;;;;;;;0.67;0.00;;;;;23.86;100.00;99568.91;5087582;27;58144;-85
2023/08/02 02:52:20;;;;;;;;;0.00;0.00;;;;;23.89;100.00;99552.56;5091915;27;67622;-85
2023/08/02 02:54:45;;;;;;;;;0.00;0.00;;;;;23.89;100.00;99556.13;5084973;27;45454;-85
2023/08/02 02:57:11;;;;;;;;;0.00;0.00;;;;;23.89;100.00;99544.47;5077748;27;64910;-86
2023/08/02 02:59:36;;;;;;;;;0.00;0.00;;;;;23.94;100.00;99540.50;5089605;27;45453;-84
2023/08/02 03:02:01;;;;;;;;;0.00;0.00;;;;;23.90;100.00;99540.81;5079958;27;45571;-86
2023/08/02 03:04:27;;;;;;;;;0.00;0.00;;;;;23.90;100.00;99532.72;5094023;27;45490;-84
2023/08/02 03:06:52;;;;;;;;;0.00;0.00;;;;;23.85;100.00;99510.59;5088143;27;45355;-85
2023/08/02 03:09:18;;;;;;;;;0.00;0.00;;;;;23.87;100.00;99525.72;5089310;27;45433;-86
2023/08/02 03:11:43;;;;;;;;;0.00;0.00;;;;;23.88;100.00;99515.78;5092679;27;45692;-86
2023/08/02 03:14:09;;;;;;;;;0.00;0.00;;;;;23.82;100.00;99508.09;5097093;27;45181;-85
2023/08/02 03:16:34;;;;;;;;;0.00;0.00;;;;;23.75;100.00;99504.91;5095047;27;61652;-85
2023/08/02 03:18:59;;;;;;;;;0.00;0.00;;;;;23.73;100.00;99499.63;5090688;27;52447;-85
2023/08/02 03:21:25;;;;;;;;;0.00;0.00;;;;;23.83;100.00;99509.84;5089311;27;66730;-85
2023/08/02 03:23:50;;;;;;;;;0.00;0.00;;;;;23.83;100.00;99497.22;5097199;27;65358;-85
2023/08/02 03:26:15;;;;;;;;;0.00;0.00;;;;;23.89;100.00;99493.25;5076598;27;55271;-86
2023/08/02 03:28:40;;;;;;;;;0.00;0.00;;;;;23.82;100.00;99492.78;5091882;27;61209;-88
2023/08/02 03:31:06;;;;;;;;;0.00;0.00;;;;;23.91;100.00;99488.63;5088761;27;45933;-85
2023/08/02 03:33:31;;;;;;;;;0.00;0.00;;;;;23.79;100.00;99463.31;5091319;27;45361;-84
2023/08/02 03:35:57;;;;;;;;;0.00;0.00;;;;;23.91;100.00;99473.28;5096990;27;61810;-86
2023/08/02 03:38:22;;;;;;;;;0.00;0.00;;;;;23.92;100.00;99469.66;5095043;27;61142;-87
2023/08/02 03:40:47;;;;;;;;;0.00;0.00;;;;;23.93;100.00;99466.00;5096082;27;67899;-85
2023/08/02 03:43:13;;;;;;;;;0.00;0.00;;;;;23.97;100.00;99464.81;5092738;27;45444;-86
2023/08/02 03:45:38;;;;;;;;;0.00;0.00;;;;;23.95;100.00;99458.66;5090769;27;58825;-86
2023/08/02 03:48:03;;;;;;;;;0.00;0.00;;;;;24.02;100.00;99453.72;5095443;27;61503;-84
2023/08/02 03:50:29;;;;;;;;;0.00;0.00;;;;;24.07;100.00;99464.19;5094770;27;45412;-85
2023/08/02 03:52:54;;;;;;;;;0.00;0.00;;;;;23.94;100.00;99456.06;5085977;27;45331;-85
2023/08/02 03:55:20;;;;;;;;;0.00;0.00;;;;;24.02;100.00;99465.41;5080271;27;63014;-84
2023/08/02 03:57:45;;;;;;;;;0.00;0.00;;;;;24.06;100.00;99455.25;5098385;27;56456;-85
2023/08/02 04:00:11;;;;;;;;;0.67;0.00;;;;;24.12;100.00;99443.19;5085146;27;66934;-86
2023/08/02 04:02:36;;;;;;;;;0.00;0.00;;;;;24.17;100.00;99443.75;5097993;27;45356;-86
2023/08/02 04:05:01;;;;;;;;;0.00;0.00;;;;;24.06;100.00;99444.47;5093630;27;60755;-85
2023/08/02 04:07:27;;;;;;;;;0.00;0.00;;;;;24.11;100.00;99436.06;5074087;27;45280;-85
2023/08/02 04:09:52;;;;;;;;;0.00;0.00;;;;;24.19;100.00;99439.13;5092683;27;61691;-85
2023/08/02 04:12:19;;;;;;;;;0.00;0.00;;;;;24.18;100.00;99430.19;5115856;27;63513;-87
2023/08/02 04:14:44;;;;;;;;;0.00;0.00;;;;;24.18;100.00;99427.47;5091991;27;45621;-85
2023/08/02 04:17:10;;;;;;;;;0.00;0.00;;;;;24.22;100.00;99428.97;5090307;27;45903;-86
2023/08/02 04:19:35;;;;;;;;;0.00;0.00;;;;;24.22;100.00;99428.09;5098049;27;65352;-88
2023/08/02 04:22:00;;;;;;;;;0.00;0.00;;;;;24.25;100.00;99430.63;5089945;27;50590;-87
2023/08/02 04:24:26;;;;;;;;;0.00;0.00;;;;;24.38;100.00;99431.53;5093906;27;54068;-84
2023/08/02 04:26:51;;;;;;;;;0.00;0.00;;;;;24.34;100.00;99421.88;5090549;27;56908;-84
2023/08/02 04:29:16;;;;;;;;;0.00;0.00;;;;;24.36;100.00;99420.00;5085015;27;64146;-85
2023/08/02 04:31:41;;;;;;;;;0.00;0.00;;;;;24.37;100.00;99416.31;5112326;27;67943;-84
2023/08/02 04:34:07;;;;;;;;;0.00;0.00;;;;;24.36;100.00;99413.72;5112280;27;62169;-84
2023/08/02 04:36:32;;;;;;;;;0.00;0.00;;;;;24.37;100.00;99413.63;5098987;27;45205;-84
2023/08/02 04:38:59;;;;;;;;;0.00;0.00;;;;;24.33;100.00;99411.19;5093521;27;45679;-88
2023/08/02 04:41:24;;;;;;;;;0.00;0.00;;;;;24.38;100.00;99407.25;5074088;27;45742;-85
2023/08/02 04:43:50;;;;;;;;;1.00;0.00;;;;;24.36;100.00;99409.19;5097300;27;59057;-82
2023/08/02 04:46:15;;;;;;;;;0.00;0.00;;;;;24.40;100.00;99402.63;5089921;27;55022;-85
2023/08/02 04:48:40;;;;;;;;;0.00;0.00;;;;;24.42;100.00;99406.06;5088102;27;46371;-85
2023/08/02 04:51:08;;;;;;;;;0.00;0.00;;;;;24.41;100.00;99400.78;5086210;27;50051;-85
2023/08/02 04:53:34;;;;;;;;;0.00;0.00;;;;;24.42;100.00;99403.38;5091574;27;45462;-83
2023/08/02 04:55:59;;;;;;;;;0.00;0.00;;;;;24.39;100.00;99395.47;5090466;27;45484;-84
2023/08/02 04:58:25;;;;;;;;;0.00;0.00;;;;;24.36;100.00;99395.69;5080933;27;65264;-85
2023/08/02 05:00:50;;;;;;;;;0.00;0.00;;;;;24.51;100.00;99394.66;5090927;27;45476;-88
2023/08/02 05:03:15;;;;;;;;;0.00;0.00;;;;;24.53;100.00;99383.75;5114145;27;55445;-85
2023/08/02 05:05:41;;;;;;;;;0.00;0.00;;;;;24.54;100.00;99386.31;5094266;27;45581;-85
2023/08/02 05:08:06;;;;;;;;;0.00;0.00;;;;;24.53;100.00;99384.59;5097039;27;67775;-86
2023/08/02 05:10:31;;;;;;;;;0.00;0.00;;;;;24.59;100.00;99377.03;5097640;27;45375;-86
2023/08/02 05:12:57;;;;;;;;;0.00;0.00;;;;;24.58;100.00;99375.31;5109106;27;60332;-86
2023/08/02 05:15:22;;;;;;;;;0.00;0.00;;;;;24.63;100.00;99378.56;5094926;27;45614;-86
2023/08/02 05:17:47;;;;;;;;;0.00;0.00;;;;;24.68;100.00;99377.28;5084110;27;46371;-87
2023/08/02 05:20:13;;;;;;;;;0.00;0.00;;;;;24.63;100.00;99365.06;5187897;22;46693;-86
2023/08/02 05:22:38;;;;;;;;;0.00;0.00;;;;;24.67;100.00;99369.28;5094455;27;45767;-87
2023/08/02 05:25:04;;;;;;;;;0.00;0.00;;;;;24.66;100.00;99362.13;5078105;27;56356;-88
2023/08/02 05:27:29;;;;;;;;;0.00;0.00;;;;;24.55;100.00;99373.69;5076729;27;48292;-86
2023/08/02 05:29:55;;;;;;;;;0.00;0.00;;;;;24.52;100.00;99365.81;5077337;27;63605;-85
2023/08/02 05:32:20;;;;;;;;;0.00;0.00;;;;;24.51;100.00;99370.38;5074646;27;59918;-86
2023/08/02 05:34:45;;;;;;;;;0.00;0.00;;;;;24.37;100.00;99356.97;5076727;27;62122;-87
2023/08/02 05:37:12;;;;;;;;;0.00;0.00;;;;;24.40;100.00;99354.06;5076756;28;47311;-86
2023/08/02 05:39:37;;;;;;;;;0.00;0.00;;;;;24.38;100.00;99347.03;5077449;28;45410;-86
2023/08/02 05:42:03;;;;;;;;;0.00;0.00;;;;;24.38;100.00;99350.59;5071887;27;45279;-88
2023/08/02 05:44:28;;;;;;;;;0.00;0.00;;;;;24.35;100.00;99353.50;5060528;28;45498;-86
2023/08/02 05:46:54;;;;;;;;;0.00;0.00;;;;;24.33;100.00;99352.69;5072567;27;63632;-86
2023/08/02 05:49:19;;;;;;;;;0.00;0.00;;;;;24.31;100.00;99346.56;5059416;28;45444;-86
2023/08/02 05:51:44;;;;;;;;;0.00;0.00;;;;;24.33;100.00;99362.63;5076600;28;59567;-88
2023/08/02 05:54:10;;;;;;;;;0.00;0.00;;;;;24.31;100.00;99342.03;5051536;28;61786;-85
2023/08/02 05:56:35;;;;;;;;;0.00;0.00;;;;;24.32;100.00;99350.97;5068531;27;68422;-86
2023/08/02 05:59:00;;;;;;;;;0.00;0.00;;;;;24.36;100.00;99344.44;5072657;27;66067;-86
2023/08/02 06:01:26;;;;;;;;;0.00;0.00;;;;;24.36;100.00;99347.13;5069246;28;57510;-88
2023/08/02 06:03:51;;;;;;;;;0.00;0.00;;;;;24.36;100.00;99339.03;5077983;28;45543;-84
2023/08/02 06:06:16;;;;;;;;;0.00;0.00;;;;;24.41;100.00;99336.03;5073534;28;68730;-86
2023/08/02 06:08:43;;;;;;;;;0.00;0.00;;;;;24.47;100.00;99327.50;5066397;27;55734;-88
2023/08/02 06:11:09;;;;;;;;;0.00;0.00;;;;;24.46;100.00;99326.66;5069967;28;45426;-87
2023/08/02 06:13:34;;;;;;;;;0.00;0.00;;;;;24.53;100.00;99322.53;5076106;27;46044;-86
2023/08/02 06:15:59;;;;;;;;;0.00;0.00;;;;;24.63;100.00;99321.88;5072882;27;64280;-86
2023/08/02 06:18:25;;;;;;;;;0.00;0.00;;;;;24.67;100.00;99310.75;5061247;27;57326;-86
2023/08/02 06:20:50;;;;;;;;;0.00;0.00;;;;;24.66;100.00;99308.16;5072896;27;65683;-86
2023/08/02 06:23:15;;;;;;;;;0.33;0.00;;;;;24.69;100.00;99321.44;5069180;28;57209;-87
2023/08/02 06:25:40;;;;;;;;;0.00;0.00;;;;;24.61;100.00;99305.81;5062038;28;47377;-86
2023/08/02 06:28:06;;;;;;;;;0.00;0.00;;;;;24.48;100.00;99297.69;5058011;27;66218;-87
2023/08/02 06:30:31;;;;;;;;;1.00;0.00;;;;;24.46;100.00;99298.81;5059935;28;64321;-85
2023/08/02 06:32:56;;;;;;;;;0.00;0.00;;;;;24.48;100.00;99313.03;5076994;27;60911;-86
2023/08/02 06:35:22;;;;;;;;;0.00;0.00;;;;;24.48;100.00;99313.91;5073246;27;69189;-86
2023/08/02 06:37:47;;;;;;;;;0.00;0.00;;;;;24.50;100.00;99305.69;5075676;28;64426;-86
2023/08/02 06:40:12;;;;;;;;;0.00;0.00;;;;;24.46;100.00;99302.34;5073484;27;45631;-87
2023/08/02 06:42:38;;;;;;;;;0.00;0.00;;;;;24.46;100.00;99298.81;5075596;28;45335;-87
2023/08/02 06:45:03;;;;;;;;;0.00;0.00;;;;;24.58;100.00;99294.34;5054576;28;47492;-86
2023/08/02 06:47:29;;;;;;;;;0.00;0.00;;;;;24.56;100.00;99287.25;5062988;27;45375;-86
2023/08/02 06:49:54;;;;;;;;;0.00;0.00;;;;;24.59;100.00;99277.19;5075345;27;61041;-89
2023/08/02 06:52:19;;;;;;;;;0.00;0.00;;;;;24.73;100.00;99277.06;5062439;27;57639;-87
2023/08/02 06:54:45;;;;;;;;;0.00;0.00;;;;;24.80;100.00;99276.50;5075447;28;68766;-86
2023/08/02 06:57:10;;;;;;;;;0.00;0.00;;;;;24.82;100.00;99277.28;5063647;28;63467;-86
2023/08/02 06:59:35;;;;;;;;;0.00;0.00;;;;;24.87;100.00;99276.03;5070315;28;47372;-87
2023/08/02 07:02:01;;;;;;;;;0.00;0.00;;;;;24.99;100.00;99281.44;5055239;28;60056;-85
2023/08/02 07:04:26;;;;;;;;;0.00;0.00;;;;;24.93;100.00;99272.91;5091220;27;60639;-86
2023/08/02 07:06:51;;;;;;;;;0.00;0.00;;;;;24.96;100.00;99270.84;5073717;28;59369;-86
2023/08/02 07:09:17;;;;;;;;;0.00;0.00;;;;;25.06;100.00;99281.88;5069945;27;53942;-85
2023/08/02 07:11:42;;;;;;;;;0.00;0.00;;;;;25.10;100.00;99258.22;5061662;27;63933;-86
2023/08/02 07:14:07;;;;;;;;;0.00;0.00;;;;;25.14;100.00;99249.78;5069158;27;45925;-86
2023/08/02 07:16:33;;;;;;;;;0.00;0.00;;;;;25.21;100.00;99251.03;5074753;27;65004;-84
2023/08/02 07:19:02;;;;;;;;;0.00;0.00;;;;;25.30;100.00;99244.94;5075265;27;60906;-88
2023/08/02 07:21:27;;;;;;;;;0.00;0.00;;;;;25.39;100.00;99245.22;5067229;28;45452;-85
2023/08/02 07:23:54;;;;;;;;;0.00;0.00;;;;;25.39;100.00;99235.25;5072227;28;47235;-88
2023/08/02 07:26:19;;;;;;;;;0.00;0.00;;;;;25.38;100.00;99238.09;5075475;28;45355;-86
2023/08/02 07:28:44;;;;;;;;;0.00;0.00;;;;;25.34;100.00;99249.13;5075943;27;45352;-86
2023/08/02 07:31:12;;;;;;;;;0.00;0.00;;;;;25.28;100.00;99243.31;5076691;27;59623;-85
2023/08/02 07:33:37;;;;;;;;;1.00;0.00;;;;;25.23;100.00;99249.06;5071476;28;46433;-87
2023/08/02 07:36:04;;;;;;;;;0.00;0.00;;;;;25.24;100.00;99245.38;5074928;28;45235;-88
2023/08/02 07:38:29;;;;;;;;;0.00;0.00;;;;;25.29;100.00;99245.03;5058258;28;45290;-86
2023/08/02 07:40:55;;;;;;;;;0.00;0.00;;;;;25.28;100.00;99248.72;5071133;27;45454;-85
2023/08/02 07:43:20;;;;;;;;;0.00;0.00;;;;;25.52;100.00;99257.69;5075217;28;46538;-85
2023/08/02 07:45:45;;;;;;;;;0.00;0.00;;;;;25.65;100.00;99252.19;5071688;28;45300;-88
2023/08/02 07:48:11;;;;;;;;;0.00;0.00;;;;;25.71;100.00;99234.66;5069366;27;57398;-86
2023/08/02 07:50:36;;;;;;;;;0.00;0.00;;;;;25.75;100.00;99228.91;5061705;28;59800;-84
2023/08/02 07:53:02;;;;;;;;;0.00;0.00;;;;;25.80;100.00;99237.53;5068735;27;64987;-82
2023/08/02 07:55:27;;;;;;;;;0.00;0.00;;;;;25.88;100.00;99234.22;5060510;27;45482;-82
2023/08/02 07:57:53;;;;;;;;;0.00;0.00;;;;;25.92;100.00;99218.63;5060369;28;45335;-83
2023/08/02 08:00:18;;;;;;;;;0.00;0.00;;;;;26.02;100.00;99236.72;5071588;28;57736;-84
2023/08/02 08:02:43;;;;;;;;;0.00;0.00;;;;;26.16;100.00;99221.28;5074935;28;64818;-83
2023/08/02 08:05:09;;;;;;;;;0.67;0.00;;;;;26.28;100.00;99229.25;5061181;27;59592;-84
2023/08/02 08:07:34;;;;;;;;;0.00;0.00;;;;;26.37;100.00;99228.53;5053176;28;45379;-84
2023/08/02 08:10:00;;;;;;;;;0.00;0.00;;;;;26.37;100.00;99220.41;5075550;27;45501;-83
2023/08/02 08:12:25;;;;;;;;;0.00;0.00;;;;;26.51;100.00;99223.88;5074663;28;57054;-83
2023/08/02 08:14:51;;;;;;;;;0.00;0.00;;;;;26.59;100.00;99224.13;5067736;28;45485;-84
2023/08/02 08:17:16;;;;;;;;;0.00;0.00;;;;;26.55;100.00;99218.09;5073954;27;45248;-85
2023/08/02 08:19:43;;;;;;;;;0.00;0.00;;;;;26.77;100.00;99224.47;5075008;27;45487;-83
2023/08/02 08:22:08;;;;;;;;;0.00;0.00;;;;;26.77;100.00;99200.97;5075218;28;47392;-84
2023/08/02 08:24:34;;;;;;;;;1.00;0.00;;;;;26.66;100.00;99221.78;5067851;28;45387;-82
2023/08/02 08:26:59;;;;;;;;;0.00;0.00;;;;;26.79;100.00;99200.81;5073985;28;45463;-82
2023/08/02 08:29:26;;;;;;;;;0.00;0.00;;;;;26.79;100.00;99220.66;5076103;27;57293;-83
2023/08/02 08:31:52;;;;;;;;;0.00;0.00;;;;;26.81;100.00;99223.25;5066810;28;46493;-85
2023/08/02 08:34:17;;;;;;;;;0.00;0.00;;;;;26.79;100.00;99225.19;5067323;28;45327;-86
2023/08/02 08:36:43;;;;;;;;;1.00;0.00;;;;;26.71;100.00;99214.16;5075164;28;45311;-87
2023/08/02 08:39:08;;;;;;;;;0.00;0.00;;;;;26.62;100.00;99223.88;5073613;27;59329;-85
2023/08/02 08:41:33;;;;;;;;;0.00;0.00;;;;;26.53;100.00;99206.53;5064119;27;46810;-85
2023/08/02 08:44:02;;;;;;;;;0.00;0.00;;;;;26.45;100.00;99211.69;5067265;27;53770;-85
2023/08/02 08:46:31;;;;;;;;;0.00;0.00;;;;;26.42;100.00;99211.06;5074162;28;45293;-83
2023/08/02 08:48:58;;;;;;;;;0.00;0.00;;;;;26.30;100.00;99208.34;5068281;27;45299;-85
2023/08/02 08:51:25;;;;;;;;;0.00;0.00;;;;;26.31;100.00;99201.06;5072400;28;46504;-84
2023/08/02 08:53:51;;;;;;;;;0.00;0.00;;;;;26.23;100.00;99206.25;5069027;27;45636;-83
2023/08/02 08:56:18;;;;;;;;;0.00;0.00;;;;;26.24;100.00;99191.75;5075452;28;49279;-85
2023/08/02 08:58:44;;;;;;;;;0.00;0.00;;;;;26.26;100.00;99189.75;5064942;27;45442;-84
2023/08/02 09:01:09;;;;;;;;;0.00;0.00;;;;;26.33;100.00;99201.84;5075359;28;67872;-85
2023/08/02 09:03:35;;;;;;;;;0.00;0.00;;;;;26.34;100.00;99177.34;5076827;28;67369;-85
2023/08/02 09:06:01;;;;;;;;;0.00;0.00;;;;;26.35;100.00;99187.19;5074116;28;45545;-84
2023/08/02 09:08:26;;;;;;;;;0.00;0.00;;;;;26.45;100.00;99181.94;5071036;27;45367;-86
2023/08/02 09:10:55;;;;;;;;;0.00;0.00;;;;;26.49;100.00;99183.41;5065123;28;46522;-86
2023/08/02 09:13:25;;;;;;;;;0.00;0.00;;;;;26.57;100.00;99161.97;5076010;28;51181;-85
2023/08/02 09:16:07;;;;;;;;;0.00;0.00;;;;;26.82;100.00;99168.09;5077001;28;45426;-86
2023/08/02 09:18:41;;;;;;;;;0.00;0.00;;;;;26.96;100.00;99161.53;5077114;27;45248;-85
2023/08/02 09:21:08;;;;;;;;;0.00;0.00;;;;;27.19;100.00;99151.50;5078185;27;47531;-85
2023/08/02 09:23:33;;;;;;;;;0.00;0.00;;;;;27.26;100.00;99150.84;5065140;27;46037;-87
2023/08/02 09:26:20;;;;;;;;;0.00;0.00;;;;;27.39;100.00;99147.97;5059331;27;49222;-86
2023/08/02 09:29:05;;;;;;;;;0.00;0.00;;;;;27.50;100.00;99139.75;5060102;27;45535;-86
2023/08/02 09:31:34;;;;;;;;;0.00;0.00;;;;;27.57;100.00;99153.63;5086141;27;46558;-85
2023/08/02 09:34:00;;;;;;;;;0.00;0.00;;;;;27.49;100.00;99142.59;5074650;27;45505;-84
2023/08/02 09:36:27;;;;;;;;;0.00;0.00;;;;;27.31;100.00;99142.31;5075342;28;45245;-84
2023/08/02 09:38:57;;;;;;;;;0.00;0.00;;;;;27.28;100.00;99142.59;5073108;27;45241;-83
2023/08/02 09:41:23;;;;;;;;;0.00;0.00;;;;;27.24;100.00;99135.72;5068289;27;46844;-82
2023/08/02 09:43:49;;;;;;;;;0.00;0.00;;;;;27.18;100.00;99136.22;5055130;27;45313;-82
2023/08/02 09:46:29;;;;;;;;;0.00;0.00;;;;;27.20;100.00;99136.94;5055592;28;45316;-82
2023/08/02 09:48:59;;;;;;;;;0.00;0.00;;;;;27.20;100.00;99137.81;5076148;27;45433;-85
2023/08/02 09:51:41;;;;;;;;;0.00;0.00;;;;;27.25;100.00;99142.84;5076432;27;46723;-82
2023/08/02 09:54:07;;;;;;;;;0.00;0.00;;;;;27.34;100.00;99132.09;5071476;27;45533;-84
2023/08/02 09:56:34;;;;;;;;;0.00;0.00;;;;;27.30;100.00;99154.16;5059514;28;45689;-84
2023/08/02 09:59:01;;;;;;;;;0.00;0.00;;;;;27.31;100.00;99164.00;5077099;27;45574;-83
2023/08/02 10:01:28;;;;;;;;;0.00;0.00;;;;;27.28;100.00;99161.56;5075916;28;45982;-82
2023/08/02 10:03:57;;;;;;;;;0.00;0.00;;;;;27.29;100.00;99176.84;5064642;28;45322;-82
2023/08/02 10:06:28;;;;;;;;;0.00;0.00;;;;;27.24;100.00;99184.50;5066913;28;45317;-86
2023/08/02 10:08:57;;;;;;;;;0.00;0.00;;;;;27.15;100.00;99168.00;5076398;27;45499;-86
2023/08/02 10:11:24;;;;;;;;;0.00;0.00;;;;;27.13;100.00;99164.56;5068575;27;45853;-87
2023/08/02 10:13:52;;;;;;;;;1.00;0.00;;;;;27.18;100.00;99171.47;5067666;28;45306;-85
2023/08/02 10:16:18;;;;;;;;;0.00;0.00;;;;;27.23;100.00;99180.91;5054238;28;45409;-85
2023/08/02 10:18:45;;;;;;;;;0.00;0.00;;;;;27.26;100.00;99196.03;5064793;28;45686;-85
2023/08/02 10:21:12;;;;;;;;;1.00;0.00;;;;;27.30;100.00;99176.69;5090073;27;45565;-83
2023/08/02 10:23:37;;;;;;;;;1.00;0.00;;;;;27.34;100.00;99151.06;5064249;27;45525;-85
2023/08/02 10:26:03;;;;;;;;;0.00;0.00;;;;;27.37;100.00;99158.06;5056843;28;59936;-85
2023/08/02 10:28:30;;;;;;;;;0.00;0.00;;;;;27.42;100.00;99186.47;5057848;28;49426;-83
2023/08/02 10:30:56;;;;;;;;;0.00;0.00;;;;;27.49;100.00;99156.16;5063471;27;46336;-84
2023/08/02 10:33:21;;;;;;;;;0.00;0.00;;;;;27.45;100.00;99143.84;5075937;27;45437;-84
2023/08/02 10:36:01;;;;;;;;;0.00;0.00;;;;;27.53;100.00;99149.47;5076314;28;45310;-82
2023/08/02 10:38:47;;;;;;;;;0.00;0.00;;;;;27.44;100.00;99163.84;5043536;28;45509;-84
2023/08/02 10:41:14;;;;;;;;;1.67;0.00;;;;;27.48;100.00;99163.41;5060690;28;45951;-82
2023/08/02 10:44:12;;;;;;;;;0.00;0.00;;;;;27.52;100.00;99150.47;5072658;28;45307;-82
2023/08/02 10:46:37;;;;;;;;;1.00;0.00;;;;;27.48;100.00;99143.56;5068076;27;45335;-84
2023/08/02 10:49:08;;;;;;;;;0.00;0.00;;;;;27.56;100.00;99133.81;5061760;28;54142;-83
2023/08/02 10:51:37;;;;;;;;;1.00;0.00;;;;;27.66;100.00;99136.59;5068523;28;48294;-83
2023/08/02 10:54:22;;;;;;;;;0.00;0.00;;;;;27.76;100.00;99156.53;5068901;27;45484;-86
2023/08/02 10:56:51;;;;;;;;;1.33;1.00;;;;;27.75;100.00;99148.50;5066834;27;45266;-83
2023/08/02 10:59:36;;;;;;;;;1.00;1.00;;;;;27.80;100.00;99121.84;5077365;28;45402;-84
2023/08/02 11:02:04;;;;;;;;;0.00;0.00;;;;;27.83;97.59;99127.84;5062447;28;46186;-83
2023/08/02 11:04:33;;;;;;;;;0.00;0.00;;;;;27.79;94.97;99125.53;5065707;28;45480;-84
2023/08/02 11:07:16;;;;;;;;;0.00;0.00;;;;;27.80;93.32;99140.81;5072169;28;45386;-83
2023/08/02 11:09:42;;;;;;;;;6.00;2.00;;;;;27.92;93.00;99135.19;5066500;27;45505;-83
2023/08/02 11:12:09;;;;;;;;;1.67;0.67;;;;;27.66;93.53;99134.72;5073661;27;46594;-83
2023/08/02 11:14:35;;;;;;;;;0.00;0.00;;;;;27.62;93.46;99130.56;5063188;27;45422;-85
2023/08/02 11:17:00;;;;;;;;;1.00;0.00;;;;;27.65;92.69;99135.72;5071864;28;45252;-83
2023/08/02 11:19:28;;;;;;;;;2.00;0.00;;;;;27.74;92.95;99138.66;5066068;27;55396;-83
2023/08/02 11:21:55;;;;;;;;;2.00;1.00;;;;;27.89;93.63;99164.44;5063584;27;46993;-81
2023/08/02 11:24:20;;;;;;;;;0.00;0.00;;;;;28.02;91.28;99151.53;5075259;28;45448;-85